createdAt,value
2018-11-14T00:02:26.739Z,20.63
2018-11-14T00:04:59.382Z,18.70
2018-11-14T00:07:31.979Z,19.73
2018-11-14T00:10:04.278Z,17.20
2018-11-14T00:12:36.778Z,16.90
2018-11-14T00:15:11.380Z,20.73
2018-11-14T00:17:44.866Z,14.43
2018-11-14T00:20:17.395Z,22.27
2018-11-14T00:22:50.844Z,20.23
2018-11-14T00:25:23.417Z,24.23
2018-11-14T00:27:55.968Z,19.57
2018-11-14T00:30:28.551Z,18.53
2018-11-14T00:33:01.018Z,21.80
2018-11-14T00:35:33.592Z,19.03
2018-11-14T00:38:06.076Z,20.70
2018-11-14T00:40:38.629Z,27.43
2018-11-14T00:43:36.055Z,22.87
2018-11-14T00:46:07.845Z,19.10
2018-11-14T00:48:40.417Z,19.57
2018-11-14T00:51:13.139Z,16.87
2018-11-14T00:53:45.878Z,22.97
2018-11-14T00:56:18.240Z,18.50
2018-11-14T00:58:50.801Z,19.43
2018-11-14T01:01:23.485Z,18.20
2018-11-14T01:03:56.185Z,17.90
2018-11-14T01:06:28.878Z,15.67
2018-11-14T01:09:01.635Z,23.07
2018-11-14T01:11:34.584Z,19.40
2018-11-14T01:14:07.241Z,18.67
2018-11-14T01:16:39.628Z,18.23
2018-11-14T01:19:12.244Z,23.13
2018-11-14T01:21:45.062Z,20.23
2018-11-14T01:24:17.561Z,21.63
2018-11-14T01:26:50.009Z,17.60
2018-11-14T01:29:22.516Z,18.77
2018-11-14T01:31:54.938Z,24.73
2018-11-14T01:34:27.383Z,19.03
2018-11-14T01:36:59.858Z,22.37
2018-11-14T01:39:32.807Z,21.37
2018-11-14T01:42:05.246Z,20.60
2018-11-14T01:44:37.998Z,17.23
2018-11-14T01:47:10.920Z,22.17
2018-11-14T01:49:43.687Z,21.27
2018-11-14T01:52:16.087Z,22.47
2018-11-14T01:54:48.901Z,20.67
2018-11-14T01:57:21.313Z,23.47
2018-11-14T01:59:54.188Z,32.57
2018-11-14T02:02:26.761Z,23.10
2018-11-14T02:04:59.384Z,23.37
2018-11-14T02:07:31.947Z,28.37
2018-11-14T02:10:04.511Z,21.43
2018-11-14T02:12:37.462Z,23.30
2018-11-14T02:15:15.548Z,28.40
2018-11-14T02:17:47.919Z,22.47
2018-11-14T02:20:20.364Z,21.80
2018-11-14T02:22:52.787Z,28.00
2018-11-14T02:25:25.317Z,19.77
2018-11-14T02:27:57.833Z,27.40
2018-11-14T02:30:30.437Z,29.37
2018-11-14T02:33:02.945Z,24.00
2018-11-14T02:35:35.582Z,23.90
2018-11-14T02:38:08.167Z,27.87
2018-11-14T02:40:40.756Z,38.37
2018-11-14T02:43:13.199Z,32.70
2018-11-14T02:45:45.654Z,32.10
2018-11-14T02:48:19.330Z,30.40
2018-11-14T02:51:22.104Z,33.27
2018-11-14T02:53:55.882Z,33.33
2018-11-14T02:56:29.884Z,32.20
2018-11-14T02:59:02.784Z,31.20
2018-11-14T03:01:35.329Z,25.60
2018-11-14T03:04:08.166Z,29.53
2018-11-14T03:06:40.788Z,30.27
2018-11-14T03:09:13.370Z,28.87
2018-11-14T03:11:45.955Z,30.30
2018-11-14T03:14:18.398Z,28.43
2018-11-14T03:16:51.099Z,28.70
2018-11-14T03:19:23.691Z,26.87
2018-11-14T03:21:56.152Z,29.17
2018-11-14T03:24:28.418Z,27.47
2018-11-14T03:27:00.922Z,27.43
2018-11-14T03:29:33.574Z,32.00
2018-11-14T03:32:06.095Z,26.60
2018-11-14T03:34:38.647Z,30.57
2018-11-14T03:37:11.207Z,39.60
2018-11-14T03:39:43.563Z,29.90
2018-11-14T03:42:16.128Z,30.93
2018-11-14T03:44:48.493Z,32.63
2018-11-14T03:47:20.936Z,32.90
2018-11-14T03:49:53.376Z,31.63
2018-11-14T03:52:25.918Z,37.07
2018-11-14T03:54:59.134Z,32.13
2018-11-14T03:57:31.762Z,41.10
2018-11-14T04:00:04.265Z,33.57
2018-11-14T04:02:36.732Z,33.67
2018-11-14T04:05:09.937Z,38.20
2018-11-14T04:07:42.892Z,35.80
2018-11-14T04:10:15.897Z,38.27
2018-11-14T04:12:48.649Z,33.70
2018-11-14T04:15:21.229Z,40.80
2018-11-14T04:17:53.628Z,38.73
2018-11-14T04:20:26.547Z,34.10
2018-11-14T04:22:59.056Z,38.17
2018-11-14T04:25:31.654Z,39.37
2018-11-14T04:28:04.166Z,38.73
2018-11-14T04:30:36.762Z,43.33
2018-11-14T04:33:09.512Z,43.07
2018-11-14T04:35:42.164Z,43.03
2018-11-14T04:38:14.563Z,39.00
2018-11-14T04:40:47.097Z,41.30
2018-11-14T04:43:19.640Z,39.43
2018-11-14T04:45:51.907Z,41.47
2018-11-14T04:48:24.380Z,44.93
2018-11-14T04:50:57.026Z,46.40
2018-11-14T04:53:29.476Z,46.33
2018-11-14T04:56:02.018Z,47.17
2018-11-14T04:58:34.555Z,46.73
2018-11-14T05:01:07.020Z,55.97
2018-11-14T05:03:39.455Z,51.83
2018-11-14T05:06:11.975Z,60.83
2018-11-14T05:08:44.472Z,59.90
2018-11-14T05:11:16.963Z,59.43
2018-11-14T05:13:49.440Z,52.23
2018-11-14T05:16:22.454Z,53.87
2018-11-14T05:18:54.912Z,58.63
2018-11-14T05:21:27.136Z,57.57
2018-11-14T05:23:59.342Z,56.90
2018-11-14T05:26:31.554Z,54.87
2018-11-14T05:29:03.919Z,60.93
2018-11-14T05:31:35.655Z,66.00
2018-11-14T05:34:07.482Z,54.30
2018-11-14T05:36:39.255Z,61.80
2018-11-14T05:39:12.680Z,54.93
2018-11-14T05:41:44.366Z,65.27
2018-11-14T05:44:16.083Z,57.83
2018-11-14T05:46:47.783Z,60.87
2018-11-14T05:49:19.508Z,93.30
2018-11-14T05:51:51.349Z,61.83
2018-11-14T05:54:23.011Z,57.87
2018-11-14T05:56:54.828Z,64.50
2018-11-14T05:59:29.297Z,64.03
2018-11-14T06:02:01.235Z,61.47
2018-11-14T06:04:32.822Z,66.43
2018-11-14T06:07:04.657Z,54.20
2018-11-14T06:09:36.245Z,53.47
2018-11-14T06:12:08.015Z,52.30
2018-11-14T06:14:39.657Z,57.63
2018-11-14T06:17:11.416Z,53.13
2018-11-14T06:19:43.058Z,53.83
2018-11-14T06:22:14.849Z,52.50
2018-11-14T06:24:46.542Z,50.20
2018-11-14T06:27:18.411Z,49.80
2018-11-14T06:29:50.097Z,49.70
2018-11-14T06:32:21.771Z,55.50
2018-11-14T06:34:53.418Z,54.40
2018-11-14T06:37:25.196Z,48.07
2018-11-14T06:39:56.900Z,45.37
2018-11-14T06:42:28.626Z,49.73
2018-11-14T06:45:00.336Z,49.27
2018-11-14T06:47:32.079Z,51.57
2018-11-14T06:50:04.114Z,53.20
2018-11-14T06:52:35.758Z,50.03
2018-11-14T06:55:08.654Z,51.70
2018-11-14T06:57:40.294Z,53.90
2018-11-14T07:00:18.104Z,44.77
2018-11-14T07:02:49.785Z,43.03
2018-11-14T07:05:21.347Z,44.93
2018-11-14T07:07:52.859Z,47.67
2018-11-14T07:10:25.772Z,50.87
2018-11-14T07:13:07.593Z,45.37
2018-11-14T07:15:39.715Z,49.40
2018-11-14T07:18:12.347Z,51.00
2018-11-14T07:20:45.067Z,44.20
2018-11-14T07:23:16.828Z,50.93
2018-11-14T07:25:48.530Z,48.63
2018-11-14T07:28:20.179Z,51.77
2018-11-14T07:30:51.887Z,45.30
2018-11-14T07:33:23.575Z,44.43
2018-11-14T07:35:55.246Z,49.40
2018-11-14T07:38:43.989Z,51.40
2018-11-14T07:41:36.500Z,46.70
2018-11-14T07:44:08.268Z,46.27
2018-11-14T07:46:39.935Z,48.13
2018-11-14T07:49:11.792Z,46.47
2018-11-14T07:51:43.366Z,43.13
2018-11-14T07:54:15.095Z,46.03
2018-11-14T07:56:46.706Z,46.27
2018-11-14T07:59:18.404Z,42.93
2018-11-14T08:01:50.255Z,47.43
2018-11-14T08:04:21.846Z,48.87
2018-11-14T08:06:53.563Z,48.03
2018-11-14T08:09:25.258Z,52.33
2018-11-14T08:11:56.915Z,57.37
2018-11-14T08:14:28.707Z,52.27
2018-11-14T08:17:00.343Z,55.80
2018-11-14T08:19:31.975Z,53.40
2018-11-14T08:22:03.713Z,53.87
2018-11-14T08:24:35.388Z,58.47
2018-11-14T08:27:07.088Z,57.77
2018-11-14T08:29:38.706Z,60.33
2018-11-14T08:32:10.496Z,57.30
2018-11-14T08:34:42.130Z,60.40
2018-11-14T08:37:13.861Z,63.47
2018-11-14T08:39:45.637Z,65.53
2018-11-14T08:42:17.360Z,62.27
2018-11-14T08:44:49.203Z,63.10
2018-11-14T08:47:20.909Z,63.90
2018-11-14T08:49:52.778Z,59.73
2018-11-14T08:52:24.421Z,62.37
2018-11-14T08:54:56.206Z,61.90
2018-11-14T08:57:27.931Z,61.00
2018-11-14T08:59:59.685Z,59.37
2018-11-14T09:02:31.428Z,61.87
2018-11-14T09:05:03.133Z,59.80
2018-11-14T09:07:34.901Z,51.50
2018-11-14T09:10:07.891Z,57.70
2018-11-14T09:12:39.863Z,52.43
2018-11-14T09:15:32.557Z,53.90
2018-11-14T09:18:13.213Z,51.23
2018-11-14T09:20:44.887Z,54.93
2018-11-14T09:23:16.602Z,48.90
2018-11-14T09:25:48.367Z,48.77
2018-11-14T09:28:20.102Z,46.93
2018-11-14T09:30:51.702Z,46.80
2018-11-14T09:33:23.405Z,42.23
2018-11-14T09:35:55.097Z,45.20
2018-11-14T09:38:26.802Z,42.50
2018-11-14T09:41:00.906Z,38.77
2018-11-14T09:43:30.947Z,38.37
2018-11-14T09:46:02.612Z,39.13
2018-11-14T09:48:34.466Z,39.30
2018-11-14T09:51:06.073Z,37.73
2018-11-14T09:53:37.861Z,36.70
2018-11-14T09:56:09.817Z,43.03
2018-11-14T09:58:41.501Z,35.97
2018-11-14T10:01:13.211Z,41.43
2018-11-14T10:03:44.936Z,41.77
2018-11-14T10:06:17.098Z,38.33
2018-11-14T10:08:48.845Z,33.57
2018-11-14T10:11:20.389Z,37.07
2018-11-14T10:13:52.096Z,36.10
2018-11-14T10:16:23.817Z,35.50
2018-11-14T10:18:55.492Z,36.90
2018-11-14T10:21:27.572Z,34.20
2018-11-14T10:23:59.178Z,37.57
2018-11-14T10:26:30.945Z,36.07
2018-11-14T10:29:02.652Z,32.83
2018-11-14T10:31:34.362Z,34.10
2018-11-14T10:34:06.561Z,32.27
2018-11-14T10:36:38.206Z,33.23
2018-11-14T10:39:12.721Z,29.80
2018-11-14T10:41:44.369Z,35.47
2018-11-14T10:44:16.119Z,30.07
2018-11-14T10:46:47.806Z,30.07
2018-11-14T10:49:19.720Z,29.40
2018-11-14T10:51:51.388Z,27.07
2018-11-14T10:54:23.103Z,27.33
2018-11-14T10:56:54.889Z,30.00
2018-11-14T10:59:26.529Z,28.40
2018-11-14T11:02:15.194Z,30.73
2018-11-14T11:05:03.950Z,31.30
2018-11-14T11:07:52.939Z,29.43
2018-11-14T11:10:41.541Z,32.27
2018-11-14T11:13:30.520Z,30.43
2018-11-14T11:16:19.251Z,31.60
2018-11-14T11:18:51.388Z,33.97
2018-11-14T11:21:23.197Z,31.53
2018-11-14T11:23:54.862Z,30.43
2018-11-14T11:26:26.497Z,30.07
2018-11-14T11:28:58.138Z,28.80
2018-11-14T11:31:29.921Z,25.83
2018-11-14T11:34:01.663Z,26.53
2018-11-14T11:36:33.448Z,29.07
2018-11-14T11:39:06.846Z,27.47
2018-11-14T11:41:38.681Z,28.43
2018-11-14T11:44:10.655Z,26.10
2018-11-14T11:46:43.265Z,27.57
2018-11-14T11:49:15.005Z,29.73
2018-11-14T11:51:46.754Z,30.57
2018-11-14T11:54:18.521Z,30.03
2018-11-14T11:56:50.193Z,27.77
2018-11-14T11:59:21.929Z,28.73
2018-11-14T12:01:53.703Z,32.87
2018-11-14T12:04:25.349Z,28.73
2018-11-14T12:06:57.087Z,28.80
2018-11-14T12:09:28.674Z,33.30
2018-11-14T12:12:00.179Z,28.73
2018-11-14T12:14:31.837Z,31.87
2018-11-14T12:17:03.480Z,36.40
2018-11-14T12:19:35.301Z,36.60
2018-11-14T12:22:06.899Z,34.17
2018-11-14T12:24:38.557Z,34.70
2018-11-14T12:27:10.230Z,37.77
2018-11-14T12:29:41.826Z,34.80
2018-11-14T12:32:13.661Z,33.13
2018-11-14T12:34:45.508Z,36.90
2018-11-14T12:37:17.146Z,33.07
2018-11-14T12:39:48.837Z,40.07
2018-11-14T12:42:20.548Z,35.40
2018-11-14T12:44:52.157Z,37.70
2018-11-14T12:47:23.839Z,38.73
2018-11-14T12:49:55.561Z,35.03
2018-11-14T12:52:27.264Z,36.07
2018-11-14T12:54:58.935Z,38.07
2018-11-14T12:57:30.776Z,36.13
2018-11-14T13:00:02.434Z,35.93
2018-11-14T13:02:33.982Z,37.67
2018-11-14T13:05:05.712Z,38.40
2018-11-14T13:07:37.403Z,36.73
2018-11-14T13:10:11.313Z,35.20
2018-11-14T13:12:43.277Z,38.27
2018-11-14T13:15:15.906Z,32.07
2018-11-14T13:17:47.597Z,33.67
2018-11-14T13:20:21.467Z,36.17
2018-11-14T13:22:53.179Z,44.37
2018-11-14T13:25:25.030Z,41.63
2018-11-14T13:27:56.633Z,39.67
2018-11-14T13:30:47.359Z,40.07
2018-11-14T13:33:39.135Z,40.03
2018-11-14T13:36:30.020Z,41.50
2018-11-14T13:39:38.936Z,42.47
2018-11-14T13:42:29.528Z,34.37
2018-11-14T13:45:20.749Z,39.40
2018-11-14T13:48:12.032Z,31.87
2018-11-14T13:51:03.675Z,32.67
2018-11-14T13:54:13.268Z,36.07
2018-11-14T13:57:04.916Z,32.97
2018-11-14T13:59:55.708Z,37.77
2018-11-14T14:05:55.532Z,32.90
2018-11-14T14:08:45.963Z,33.00
2018-11-14T14:11:55.930Z,30.13
2018-11-14T14:15:07.171Z,33.10
2018-11-14T14:17:57.923Z,36.83
2018-11-14T14:20:48.393Z,33.60
2018-11-14T14:23:46.400Z,31.93
2018-11-14T14:26:55.961Z,34.43
2018-11-14T14:30:04.866Z,39.83
2018-11-14T14:33:14.501Z,37.40
2018-11-14T14:36:05.001Z,31.80
2018-11-14T14:38:56.202Z,32.13
2018-11-14T14:41:46.724Z,36.57
2018-11-14T14:44:37.095Z,31.27
2018-11-14T14:47:27.644Z,36.83
2018-11-14T14:50:19.093Z,35.77
2018-11-14T14:53:29.498Z,34.70
2018-11-14T14:56:20.316Z,37.43
2018-11-14T14:59:10.711Z,36.03
2018-11-14T15:02:02.290Z,36.50
2018-11-14T15:04:52.672Z,35.30
2018-11-14T15:07:43.996Z,36.60
2018-11-14T15:10:34.454Z,44.70
2018-11-14T15:13:25.138Z,39.43
2018-11-14T15:16:15.560Z,34.43
2018-11-14T15:22:34.926Z,31.87
2018-11-14T15:25:25.333Z,35.50
2018-11-14T15:28:34.793Z,30.77
2018-11-14T15:31:25.812Z,31.20
2018-11-14T15:34:16.549Z,38.53
2018-11-14T15:37:07.301Z,65.07
2018-11-14T15:39:58.379Z,89.10
2018-11-14T15:42:49.719Z,77.90
2018-11-14T15:45:41.639Z,57.23
2018-11-14T15:48:51.508Z,45.87
2018-11-14T15:51:42.933Z,32.57
2018-11-14T15:54:34.816Z,33.60
2018-11-14T15:57:25.281Z,39.77
2018-11-14T16:00:35.072Z,38.90
2018-11-14T16:03:25.474Z,43.67
2018-11-14T16:06:17.188Z,36.20
2018-11-14T16:09:12.883Z,36.53
2018-11-14T16:12:40.647Z,41.00
2018-11-14T16:15:50.105Z,38.63
2018-11-14T16:19:00.421Z,33.33
2018-11-14T16:21:50.781Z,34.47
2018-11-14T16:25:00.449Z,33.77
2018-11-14T16:27:53.145Z,34.37
2018-11-14T16:30:44.217Z,31.87
2018-11-14T16:33:35.873Z,33.33
2018-11-14T16:36:26.249Z,35.40
2018-11-14T16:39:35.136Z,31.87
2018-11-14T16:42:27.166Z,31.03
2018-11-14T16:45:20.178Z,28.30
2018-11-14T16:48:11.448Z,26.17
2018-11-14T16:51:01.828Z,29.10
2018-11-14T16:54:10.696Z,32.83
2018-11-14T16:57:01.102Z,28.43
2018-11-14T16:59:51.499Z,31.97
2018-11-14T17:02:44.670Z,33.57
2018-11-14T17:05:35.065Z,32.17
2018-11-14T17:08:26.193Z,26.83
2018-11-14T17:11:17.960Z,26.40
2018-11-14T17:14:09.741Z,29.97
2018-11-14T17:17:01.223Z,28.40
2018-11-14T17:19:52.003Z,25.83
2018-11-14T17:22:43.387Z,28.10
2018-11-14T17:25:34.046Z,26.77
2018-11-14T17:28:27.112Z,21.53
2018-11-14T17:30:58.659Z,27.07
2018-11-14T17:34:07.850Z,26.53
2018-11-14T17:36:58.352Z,28.63
2018-11-14T17:39:48.730Z,26.67
2018-11-14T17:42:58.319Z,29.20
2018-11-14T17:45:48.935Z,25.30
2018-11-14T17:48:39.369Z,29.67
2018-11-14T17:51:29.791Z,30.83
2018-11-14T17:54:20.187Z,30.07
2018-11-14T17:57:12.718Z,26.90
2018-11-14T18:00:03.676Z,25.00
2018-11-14T18:02:54.142Z,27.07
2018-11-14T18:05:44.756Z,27.50
2018-11-14T18:08:56.627Z,23.63
2018-11-14T18:11:48.334Z,27.20
2018-11-14T18:14:40.373Z,34.17
2018-11-14T18:17:31.524Z,29.40
2018-11-14T18:20:23.696Z,27.10
2018-11-14T18:23:17.057Z,29.53
2018-11-14T18:26:07.575Z,22.77
2018-11-14T18:28:58.589Z,26.57
2018-11-14T18:31:50.125Z,30.33
2018-11-14T18:34:41.350Z,28.07
2018-11-14T18:37:51.871Z,20.43
2018-11-14T18:40:42.264Z,29.87
2018-11-14T18:43:34.103Z,26.60
2018-11-14T18:46:24.511Z,26.87
2018-11-14T18:49:15.185Z,26.27
2018-11-14T18:52:07.551Z,26.50
2018-11-14T18:54:58.601Z,22.17
2018-11-14T18:57:50.854Z,28.40
2018-11-14T19:01:00.407Z,28.03
2018-11-14T19:03:52.905Z,21.77
2018-11-14T19:06:43.949Z,29.87
2018-11-14T19:09:34.830Z,33.60
2018-11-14T19:12:25.835Z,27.90
2018-11-14T19:15:35.403Z,26.43
2018-11-14T19:18:25.871Z,31.27
2018-11-14T19:21:35.226Z,26.70
2018-11-14T19:24:25.638Z,26.37
2018-11-14T19:27:16.082Z,22.73
2018-11-14T19:30:08.825Z,22.47
2018-11-14T19:33:06.426Z,23.93
2018-11-14T19:35:56.780Z,25.97
2018-11-14T19:38:47.191Z,26.43
2018-11-14T19:41:38.671Z,28.77
2018-11-14T19:44:29.117Z,30.20
2018-11-14T19:47:19.982Z,27.00
2018-11-14T19:50:02.800Z,32.83
2018-11-14T19:53:11.711Z,29.53
2018-11-14T19:56:02.236Z,25.73
2018-11-14T19:58:52.515Z,24.90
2018-11-14T20:01:43.840Z,26.77
2018-11-14T20:04:34.367Z,36.00
2018-11-14T20:07:25.556Z,45.60
2018-11-14T20:10:35.212Z,40.60
2018-11-14T20:13:45.051Z,41.33
2018-11-14T20:16:36.550Z,56.00
2018-11-14T20:19:28.563Z,45.37
2018-11-14T20:22:17.734Z,28.67
2018-11-14T20:25:09.095Z,31.17
2018-11-14T20:31:28.075Z,27.23
2018-11-14T20:34:18.410Z,21.97
2018-11-14T20:37:49.998Z,20.50
2018-11-14T20:40:44.830Z,25.53
2018-11-14T20:43:54.958Z,25.37
2018-11-14T20:46:47.111Z,24.27
2018-11-14T20:49:56.764Z,28.13
2018-11-14T20:53:08.477Z,25.93
2018-11-14T20:56:00.043Z,34.97
2018-11-14T20:59:08.903Z,27.47
2018-11-14T21:02:00.165Z,27.20
2018-11-14T21:04:51.969Z,26.60
2018-11-14T21:08:01.010Z,27.33
2018-11-14T21:10:52.163Z,23.70
2018-11-14T21:14:01.709Z,22.43
2018-11-14T21:20:03.058Z,22.37
2018-11-14T21:22:57.349Z,22.63
2018-11-14T21:25:49.281Z,32.00
2018-11-14T21:28:41.743Z,29.17
2018-11-14T21:31:51.998Z,24.43
2018-11-14T21:34:44.139Z,22.43
2018-11-14T21:37:36.455Z,20.73
2018-11-14T21:40:27.463Z,21.80
2018-11-14T21:43:36.810Z,17.10
2018-11-14T21:46:27.726Z,21.60
2018-11-14T21:49:36.673Z,30.57
2018-11-14T21:52:27.261Z,19.73
2018-11-14T21:55:18.351Z,31.07
2018-11-14T21:58:27.707Z,26.97
2018-11-14T22:01:21.085Z,25.00
2018-11-14T22:04:15.417Z,20.77
2018-11-14T22:10:36.890Z,24.00
2018-11-14T22:13:46.803Z,44.13
2018-11-14T22:16:38.549Z,31.47
2018-11-14T22:19:48.510Z,26.67
2018-11-14T22:22:40.760Z,25.47
2018-11-14T22:25:32.105Z,23.53
2018-11-14T22:28:23.104Z,24.63
2018-11-14T22:31:15.321Z,38.83
2018-11-14T22:34:08.391Z,66.47
2018-11-14T22:36:59.598Z,54.27
2018-11-14T22:39:52.669Z,26.70
2018-11-14T22:46:00.726Z,48.23
2018-11-14T22:48:53.499Z,32.43
2018-11-14T22:51:50.603Z,27.27
2018-11-14T22:55:03.221Z,22.37
2018-11-14T22:57:55.231Z,23.47
2018-11-14T23:00:49.089Z,22.53
2018-11-14T23:03:41.081Z,23.87
2018-11-14T23:06:35.359Z,17.63
2018-11-14T23:12:40.153Z,19.67
2018-11-14T23:15:51.153Z,19.77
2018-11-14T23:18:42.992Z,19.87
2018-11-14T23:21:33.901Z,21.50
2018-11-14T23:24:24.105Z,22.27
2018-11-14T23:27:17.051Z,18.00
2018-11-14T23:30:26.653Z,19.83
2018-11-14T23:33:17.966Z,19.67
2018-11-14T23:36:09.726Z,19.07
2018-11-14T23:39:01.365Z,24.47
2018-11-14T23:41:52.945Z,17.00
2018-11-14T23:44:44.464Z,18.80
2018-11-14T23:47:36.133Z,19.33
2018-11-14T23:50:29.070Z,20.00
2018-11-14T23:53:20.037Z,20.10
2018-11-14T23:59:59.491Z,22.13
